Capitol Logistics 2854


KORD
Chicago O'Hare International Airport
Chicago, Illinois, US
CYHZ
Robert L. Stanfield International Airport
Halifax, , CA

Activity Log

Date Flight Route Aircraft Duration
No Flights Yet

Route Details

Aircraft Information
Primary: Boeing 747-400BCF
Backup: Boeing 777-200LRF
Route Data
Distance: 1075nm
Sched. Duration: 2h 25m
Avg. Duration: 0h 00m (-225m)
Times Flown: 0
Recm'd Route: EBAKE PMM J547 FNT Q818 DERLO Q913 CABCI Q29 EBONY FUNDY3
Planned Altitude: 37,000ft
Origin Wx: KORD 271551Z 27012G18KT 10SM OVC046 M03/M11 A3004 RMK AO2 SLP182 T10281106
Dest. Wx: CYHZ 271600Z 09020G26KT 6SM -FZRA -PL FEW015 OVC046 M01/M03 A2983 RMK SF3SC5 PRESFR SLP109
Notes: OPERATED FOR SKYLEASE CARGO

Financial History
Total Freight: 0lbs
Average Load: 0lbs/flt
Fuel Used: 0lbs
Avg. Fuel Used: 0lbs/flt
Fuel Expense: $0
Avg. Fuel Expense: $0
Avg. Fuel Cost: $0/lbs
Total Gross Income: $0
Pilot Pay: $0
Total Expenses: $0
Total Revenue: $0
Average Revenue: $0